YBBN/BNE METAR and TAF weather

Enter ICAO airport designator
Station Type Date Time Source
YBBN METAR 2019/10/15 08:30 UTC NOAA

YBBN 150830Z 05012KT 9999 FEW035 22/19 Q1012 NOSIG


Station Type Date Time Source
YBBN Decoded METAR 2019/10/15 08:30 UTC NOAA

Brisbane Airport M. O, Australia (YBBN) 27-23S 153-06E 5M
Oct 15, 2019 - 04:30 AM EDT / 2019.10.15 0830 UTC
Wind: from the NE (050 degrees) at 14 MPH (12 KT):0
Visibility: greater than 7 mile(s):0
Sky conditions: mostly clear
Temperature: 71 F (22 C)
Dew Point: 66 F (19 C)
Relative Humidity: 83%
Pressure (altimeter): 29.88 in. Hg (1012 hPa)
ob: YBBN 150830Z 05012KT 9999 FEW035 22/19 Q1012 NOSIG
cycle: 8

Station Type Date Time Source
YBBN TAF 2019/10/15 06:36 UTC NOAA

TAF YBBN 150504Z 1506/1612 04014KT 9999 SCT035
FM151200 35008KT 9999 SCT015
FM152300 02014KT 9999 FEW030

Example: see airport list